sensor_id;sensor_type;location;lat;lon;timestamp;P1;durP1;ratioP1;P2;durP2;ratioP2
7027;SDS011;3555;53.248;10.336;2023-02-01T00:00:12;17.97;;;3.60;;
7027;SDS011;3555;53.248;10.336;2023-02-01T00:02:39;18.07;;;4.23;;
7027;SDS011;3555;53.248;10.336;2023-02-01T00:05:07;20.13;;;3.80;;
7027;SDS011;3555;53.248;10.336;2023-02-01T00:07:34;12.40;;;3.10;;
7027;SDS011;3555;53.248;10.336;2023-02-01T00:10:01;18.23;;;3.70;;
7027;SDS011;3555;53.248;10.336;2023-02-01T00:12:29;14.87;;;3.33;;
7027;SDS011;3555;53.248;10.336;2023-02-01T00:14:57;18.30;;;5.80;;
7027;SDS011;3555;53.248;10.336;2023-02-01T00:17:24;18.20;;;3.80;;
7027;SDS011;3555;53.248;10.336;2023-02-01T00:19:51;17.80;;;4.23;;
7027;SDS011;3555;53.248;10.336;2023-02-01T00:22:18;20.30;;;4.07;;
7027;SDS011;3555;53.248;10.336;2023-02-01T00:24:45;16.50;;;3.87;;
7027;SDS011;3555;53.248;10.336;2023-02-01T00:27:12;18.43;;;3.70;;
7027;SDS011;3555;53.248;10.336;2023-02-01T00:29:42;15.93;;;3.53;;
7027;SDS011;3555;53.248;10.336;2023-02-01T00:32:11;18.80;;;3.87;;
7027;SDS011;3555;53.248;10.336;2023-02-01T00:34:38;20.00;;;3.67;;
7027;SDS011;3555;53.248;10.336;2023-02-01T00:37:05;16.43;;;3.10;;
7027;SDS011;3555;53.248;10.336;2023-02-01T00:39:32;20.40;;;3.80;;
7027;SDS011;3555;53.248;10.336;2023-02-01T00:41:59;20.23;;;4.30;;
7027;SDS011;3555;53.248;10.336;2023-02-01T00:44:27;19.13;;;4.10;;
7027;SDS011;3555;53.248;10.336;2023-02-01T00:46:58;20.47;;;4.23;;
7027;SDS011;3555;53.248;10.336;2023-02-01T00:49:27;21.33;;;4.10;;
7027;SDS011;3555;53.248;10.336;2023-02-01T00:51:54;17.33;;;4.13;;
7027;SDS011;3555;53.248;10.336;2023-02-01T00:54:21;24.03;;;5.60;;
7027;SDS011;3555;53.248;10.336;2023-02-01T00:56:48;23.37;;;4.70;;
7027;SDS011;3555;53.248;10.336;2023-02-01T00:59:15;22.30;;;4.63;;
7027;SDS011;3555;53.248;10.336;2023-02-01T01:01:42;20.87;;;3.93;;
7027;SDS011;3555;53.248;10.336;2023-02-01T01:04:09;18.60;;;3.43;;
7027;SDS011;3555;53.248;10.336;2023-02-01T01:06:37;14.50;;;3.83;;
7027;SDS011;3555;53.248;10.336;2023-02-01T01:09:06;17.97;;;3.83;;
7027;SDS011;3555;53.248;10.336;2023-02-01T01:11:35;17.00;;;4.00;;
7027;SDS011;3555;53.248;10.336;2023-02-01T01:14:04;17.63;;;3.60;;
7027;SDS011;3555;53.248;10.336;2023-02-01T01:16:32;20.43;;;4.13;;
7027;SDS011;3555;53.248;10.336;2023-02-01T01:18:59;24.53;;;4.30;;
7027;SDS011;3555;53.248;10.336;2023-02-01T01:21:27;24.37;;;3.80;;
7027;SDS011;3555;53.248;10.336;2023-02-01T01:23:55;18.50;;;3.80;;
7027;SDS011;3555;53.248;10.336;2023-02-01T01:26:23;22.83;;;4.80;;
7027;SDS011;3555;53.248;10.336;2023-02-01T01:28:51;24.87;;;4.47;;
7027;SDS011;3555;53.248;10.336;2023-02-01T01:31:18;21.23;;;5.40;;
7027;SDS011;3555;53.248;10.336;2023-02-01T01:33:50;17.67;;;4.83;;
7027;SDS011;3555;53.248;10.336;2023-02-01T01:36:19;24.97;;;4.70;;
7027;SDS011;3555;53.248;10.336;2023-02-01T01:38:47;26.73;;;5.17;;
7027;SDS011;3555;53.248;10.336;2023-02-01T01:41:16;19.57;;;4.00;;
7027;SDS011;3555;53.248;10.336;2023-02-01T01:43:48;20.07;;;4.67;;
7027;SDS011;3555;53.248;10.336;2023-02-01T01:46:21;21.97;;;4.63;;
7027;SDS011;3555;53.248;10.336;2023-02-01T01:48:50;17.40;;;4.27;;
7027;SDS011;3555;53.248;10.336;2023-02-01T01:51:22;22.83;;;4.93;;
7027;SDS011;3555;53.248;10.336;2023-02-01T01:53:53;24.30;;;4.60;;
7027;SDS011;3555;53.248;10.336;2023-02-01T01:56:27;21.90;;;4.30;;
7027;SDS011;3555;53.248;10.336;2023-02-01T01:58:56;19.43;;;4.13;;
7027;SDS011;3555;53.248;10.336;2023-02-01T02:01:23;22.37;;;4.00;;
7027;SDS011;3555;53.248;10.336;2023-02-01T02:03:50;17.83;;;4.37;;
7027;SDS011;3555;53.248;10.336;2023-02-01T02:06:21;22.33;;;4.03;;
7027;SDS011;3555;53.248;10.336;2023-02-01T02:08:54;21.47;;;4.47;;
7027;SDS011;3555;53.248;10.336;2023-02-01T02:11:21;21.53;;;4.23;;
7027;SDS011;3555;53.248;10.336;2023-02-01T02:13:50;22.40;;;4.83;;
7027;SDS011;3555;53.248;10.336;2023-02-01T02:19:16;27.67;;;3.97;;
7027;SDS011;3555;53.248;10.336;2023-02-01T02:25:20;19.40;;;4.07;;
7027;SDS011;3555;53.248;10.336;2023-02-01T02:28:01;20.47;;;4.47;;
7027;SDS011;3555;53.248;10.336;2023-02-01T02:30:41;28.00;;;5.17;;
7027;SDS011;3555;53.248;10.336;2023-02-01T02:36:17;20.73;;;4.63;;
7027;SDS011;3555;53.248;10.336;2023-02-01T02:38:56;30.00;;;5.07;;
7027;SDS011;3555;53.248;10.336;2023-02-01T02:41:31;26.67;;;4.90;;
7027;SDS011;3555;53.248;10.336;2023-02-01T02:44:21;24.47;;;5.03;;
7027;SDS011;3555;53.248;10.336;2023-02-01T02:47:13;21.63;;;4.60;;
7027;SDS011;3555;53.248;10.336;2023-02-01T02:49:55;20.47;;;4.43;;
7027;SDS011;3555;53.248;10.336;2023-02-01T02:52:49;28.37;;;5.30;;
7027;SDS011;3555;53.248;10.336;2023-02-01T02:55:37;25.57;;;4.90;;
7027;SDS011;3555;53.248;10.336;2023-02-01T02:58:05;26.10;;;5.70;;
7027;SDS011;3555;53.248;10.336;2023-02-01T03:00:51;23.63;;;4.80;;
7027;SDS011;3555;53.248;10.336;2023-02-01T03:03:38;13.67;;;3.67;;
7027;SDS011;3555;53.248;10.336;2023-02-01T03:06:24;19.30;;;3.97;;
7027;SDS011;3555;53.248;10.336;2023-02-01T03:08:53;25.00;;;4.47;;
7027;SDS011;3555;53.248;10.336;2023-02-01T03:11:24;20.70;;;5.90;;
7027;SDS011;3555;53.248;10.336;2023-02-01T03:14:13;15.97;;;3.67;;
7027;SDS011;3555;53.248;10.336;2023-02-01T03:16:41;23.53;;;4.20;;
7027;SDS011;3555;53.248;10.336;2023-02-01T03:19:14;24.53;;;4.97;;
7027;SDS011;3555;53.248;10.336;2023-02-01T03:21:47;26.90;;;4.47;;
7027;SDS011;3555;53.248;10.336;2023-02-01T03:24:17;19.03;;;4.20;;
7027;SDS011;3555;53.248;10.336;2023-02-01T03:26:48;21.27;;;4.80;;
7027;SDS011;3555;53.248;10.336;2023-02-01T03:29:21;18.43;;;4.37;;
7027;SDS011;3555;53.248;10.336;2023-02-01T03:31:50;18.00;;;4.57;;
7027;SDS011;3555;53.248;10.336;2023-02-01T03:34:18;20.50;;;4.57;;
7027;SDS011;3555;53.248;10.336;2023-02-01T03:36:47;15.73;;;3.97;;
7027;SDS011;3555;53.248;10.336;2023-02-01T03:39:17;17.63;;;3.90;;
7027;SDS011;3555;53.248;10.336;2023-02-01T03:41:50;11.37;;;3.37;;
7027;SDS011;3555;53.248;10.336;2023-02-01T03:44:20;15.93;;;3.40;;
7027;SDS011;3555;53.248;10.336;2023-02-01T03:46:52;16.20;;;4.10;;
7027;SDS011;3555;53.248;10.336;2023-02-01T03:49:22;21.03;;;4.23;;
7027;SDS011;3555;53.248;10.336;2023-02-01T03:51:52;19.87;;;4.77;;
7027;SDS011;3555;53.248;10.336;2023-02-01T03:54:22;21.63;;;4.63;;
7027;SDS011;3555;53.248;10.336;2023-02-01T03:56:50;15.27;;;3.07;;
7027;SDS011;3555;53.248;10.336;2023-02-01T03:59:20;10.33;;;3.03;;
7027;SDS011;3555;53.248;10.336;2023-02-01T04:01:46;6.73;;;2.10;;
7027;SDS011;3555;53.248;10.336;2023-02-01T04:04:13;9.47;;;2.83;;
7027;SDS011;3555;53.248;10.336;2023-02-01T04:06:44;6.40;;;2.03;;
7027;SDS011;3555;53.248;10.336;2023-02-01T04:09:13;5.13;;;1.60;;
7027;SDS011;3555;53.248;10.336;2023-02-01T04:11:40;6.27;;;1.67;;
7027;SDS011;3555;53.248;10.336;2023-02-01T04:14:07;6.87;;;1.87;;
7027;SDS011;3555;53.248;10.336;2023-02-01T04:16:34;5.00;;;1.67;;
7027;SDS011;3555;53.248;10.336;2023-02-01T04:19:01;7.17;;;1.90;;
7027;SDS011;3555;53.248;10.336;2023-02-01T04:21:28;9.17;;;2.83;;
7027;SDS011;3555;53.248;10.336;2023-02-01T04:23:55;3.83;;;1.50;;
7027;SDS011;3555;53.248;10.336;2023-02-01T04:26:23;4.47;;;1.20;;
7027;SDS011;3555;53.248;10.336;2023-02-01T04:28:50;4.57;;;1.77;;
7027;SDS011;3555;53.248;10.336;2023-02-01T04:31:18;3.27;;;1.20;;
7027;SDS011;3555;53.248;10.336;2023-02-01T04:33:50;5.80;;;1.40;;
7027;SDS011;3555;53.248;10.336;2023-02-01T04:36:17;4.77;;;1.60;;
7027;SDS011;3555;53.248;10.336;2023-02-01T04:38:46;2.80;;;1.20;;
7027;SDS011;3555;53.248;10.336;2023-02-01T04:41:13;3.03;;;1.33;;
7027;SDS011;3555;53.248;10.336;2023-02-01T04:43:45;5.83;;;1.53;;
7027;SDS011;3555;53.248;10.336;2023-02-01T04:46:12;3.43;;;1.60;;
7027;SDS011;3555;53.248;10.336;2023-02-01T04:48:39;7.30;;;2.10;;
7027;SDS011;3555;53.248;10.336;2023-02-01T04:51:06;7.40;;;1.70;;
7027;SDS011;3555;53.248;10.336;2023-02-01T04:53:33;7.37;;;1.87;;
7027;SDS011;3555;53.248;10.336;2023-02-01T04:56:00;5.47;;;2.03;;
7027;SDS011;3555;53.248;10.336;2023-02-01T04:58:27;7.63;;;1.80;;
7027;SDS011;3555;53.248;10.336;2023-02-01T05:00:55;3.27;;;1.50;;
7027;SDS011;3555;53.248;10.336;2023-02-01T05:03:22;8.37;;;1.77;;
7027;SDS011;3555;53.248;10.336;2023-02-01T05:05:49;6.93;;;1.87;;
7027;SDS011;3555;53.248;10.336;2023-02-01T05:08:18;5.27;;;1.80;;
7027;SDS011;3555;53.248;10.336;2023-02-01T05:10:47;7.57;;;2.57;;
7027;SDS011;3555;53.248;10.336;2023-02-01T05:13:14;9.07;;;1.60;;
7027;SDS011;3555;53.248;10.336;2023-02-01T05:16:00;6.23;;;1.83;;
7027;SDS011;3555;53.248;10.336;2023-02-01T05:18:27;6.03;;;1.53;;
7027;SDS011;3555;53.248;10.336;2023-02-01T05:20:54;5.40;;;1.43;;
7027;SDS011;3555;53.248;10.336;2023-02-01T05:23:20;6.53;;;2.47;;
7027;SDS011;3555;53.248;10.336;2023-02-01T05:25:47;6.20;;;1.63;;
7027;SDS011;3555;53.248;10.336;2023-02-01T05:28:14;5.13;;;2.07;;
7027;SDS011;3555;53.248;10.336;2023-02-01T05:30:41;5.73;;;1.90;;
7027;SDS011;3555;53.248;10.336;2023-02-01T05:33:09;4.67;;;1.70;;
7027;SDS011;3555;53.248;10.336;2023-02-01T05:35:36;4.00;;;1.80;;
7027;SDS011;3555;53.248;10.336;2023-02-01T05:38:03;6.23;;;1.60;;
7027;SDS011;3555;53.248;10.336;2023-02-01T05:40:30;3.53;;;1.80;;
7027;SDS011;3555;53.248;10.336;2023-02-01T05:42:57;3.30;;;1.60;;
7027;SDS011;3555;53.248;10.336;2023-02-01T05:45:23;2.47;;;1.67;;
7027;SDS011;3555;53.248;10.336;2023-02-01T05:47:50;5.60;;;1.90;;
7027;SDS011;3555;53.248;10.336;2023-02-01T05:50:18;4.77;;;1.87;;
7027;SDS011;3555;53.248;10.336;2023-02-01T05:52:45;6.80;;;2.03;;
7027;SDS011;3555;53.248;10.336;2023-02-01T05:55:13;4.83;;;1.70;;
7027;SDS011;3555;53.248;10.336;2023-02-01T05:57:40;5.23;;;1.90;;
7027;SDS011;3555;53.248;10.336;2023-02-01T06:00:07;5.07;;;1.50;;
7027;SDS011;3555;53.248;10.336;2023-02-01T06:02:35;3.03;;;1.50;;
7027;SDS011;3555;53.248;10.336;2023-02-01T06:05:02;3.90;;;1.37;;
7027;SDS011;3555;53.248;10.336;2023-02-01T06:07:30;3.17;;;1.47;;
7027;SDS011;3555;53.248;10.336;2023-02-01T06:09:58;5.27;;;1.80;;
7027;SDS011;3555;53.248;10.336;2023-02-01T06:12:25;2.20;;;1.30;;
7027;SDS011;3555;53.248;10.336;2023-02-01T06:14:53;3.50;;;1.30;;
7027;SDS011;3555;53.248;10.336;2023-02-01T06:17:20;4.90;;;1.40;;
7027;SDS011;3555;53.248;10.336;2023-02-01T06:19:46;3.47;;;1.30;;
7027;SDS011;3555;53.248;10.336;2023-02-01T06:22:13;2.60;;;1.30;;
7027;SDS011;3555;53.248;10.336;2023-02-01T06:24:42;4.17;;;1.23;;
7027;SDS011;3555;53.248;10.336;2023-02-01T06:27:09;2.43;;;1.20;;
7027;SDS011;3555;53.248;10.336;2023-02-01T06:29:38;2.00;;;1.20;;
7027;SDS011;3555;53.248;10.336;2023-02-01T06:32:05;2.33;;;1.10;;
7027;SDS011;3555;53.248;10.336;2023-02-01T06:34:32;1.73;;;1.10;;
7027;SDS011;3555;53.248;10.336;2023-02-01T06:36:58;2.20;;;1.57;;
7027;SDS011;3555;53.248;10.336;2023-02-01T06:39:25;1.83;;;1.27;;
7027;SDS011;3555;53.248;10.336;2023-02-01T06:41:54;3.13;;;1.27;;
7027;SDS011;3555;53.248;10.336;2023-02-01T06:44:21;3.03;;;1.30;;
7027;SDS011;3555;53.248;10.336;2023-02-01T06:46:48;1.40;;;1.10;;
7027;SDS011;3555;53.248;10.336;2023-02-01T06:49:15;2.20;;;1.20;;
7027;SDS011;3555;53.248;10.336;2023-02-01T06:51:43;2.40;;;1.20;;
7027;SDS011;3555;53.248;10.336;2023-02-01T06:54:10;2.93;;;1.33;;
7027;SDS011;3555;53.248;10.336;2023-02-01T06:56:37;4.27;;;1.50;;
7027;SDS011;3555;53.248;10.336;2023-02-01T06:59:05;3.47;;;1.40;;
7027;SDS011;3555;53.248;10.336;2023-02-01T07:01:32;1.77;;;1.10;;
7027;SDS011;3555;53.248;10.336;2023-02-01T07:04:00;4.70;;;1.20;;
7027;SDS011;3555;53.248;10.336;2023-02-01T07:06:26;2.67;;;1.17;;
7027;SDS011;3555;53.248;10.336;2023-02-01T07:08:53;3.93;;;1.30;;
7027;SDS011;3555;53.248;10.336;2023-02-01T07:11:21;2.23;;;1.20;;
7027;SDS011;3555;53.248;10.336;2023-02-01T07:13:48;2.47;;;1.20;;
7027;SDS011;3555;53.248;10.336;2023-02-01T07:16:17;2.73;;;1.17;;
7027;SDS011;3555;53.248;10.336;2023-02-01T07:18:45;3.87;;;1.37;;
7027;SDS011;3555;53.248;10.336;2023-02-01T07:21:12;2.63;;;1.40;;
7027;SDS011;3555;53.248;10.336;2023-02-01T07:23:39;4.43;;;1.37;;
7027;SDS011;3555;53.248;10.336;2023-02-01T07:26:07;2.03;;;1.20;;
7027;SDS011;3555;53.248;10.336;2023-02-01T07:28:37;5.77;;;1.50;;
7027;SDS011;3555;53.248;10.336;2023-02-01T07:31:04;8.40;;;2.07;;
7027;SDS011;3555;53.248;10.336;2023-02-01T07:33:34;2.20;;;1.23;;
7027;SDS011;3555;53.248;10.336;2023-02-01T07:36:01;4.10;;;1.83;;
7027;SDS011;3555;53.248;10.336;2023-02-01T07:38:29;6.90;;;2.10;;
7027;SDS011;3555;53.248;10.336;2023-02-01T07:40:57;2.87;;;1.70;;
7027;SDS011;3555;53.248;10.336;2023-02-01T07:43:24;7.37;;;2.13;;
7027;SDS011;3555;53.248;10.336;2023-02-01T07:45:51;8.03;;;1.83;;
7027;SDS011;3555;53.248;10.336;2023-02-01T07:48:19;8.50;;;2.10;;
7027;SDS011;3555;53.248;10.336;2023-02-01T07:50:47;13.43;;;2.87;;
7027;SDS011;3555;53.248;10.336;2023-02-01T07:53:15;14.50;;;2.70;;
7027;SDS011;3555;53.248;10.336;2023-02-01T07:55:41;11.17;;;3.00;;
7027;SDS011;3555;53.248;10.336;2023-02-01T07:58:08;12.03;;;2.60;;
7027;SDS011;3555;53.248;10.336;2023-02-01T08:00:35;17.13;;;2.97;;
7027;SDS011;3555;53.248;10.336;2023-02-01T08:03:19;12.20;;;3.03;;
7027;SDS011;3555;53.248;10.336;2023-02-01T08:05:47;13.67;;;3.10;;
7027;SDS011;3555;53.248;10.336;2023-02-01T08:08:14;13.47;;;3.33;;
7027;SDS011;3555;53.248;10.336;2023-02-01T08:14:02;10.97;;;2.83;;
7027;SDS011;3555;53.248;10.336;2023-02-01T08:16:29;11.73;;;2.60;;
7027;SDS011;3555;53.248;10.336;2023-02-01T08:18:57;17.93;;;3.13;;
7027;SDS011;3555;53.248;10.336;2023-02-01T08:21:26;13.50;;;3.20;;
7027;SDS011;3555;53.248;10.336;2023-02-01T08:24:01;12.10;;;2.67;;
7027;SDS011;3555;53.248;10.336;2023-02-01T08:26:29;16.17;;;3.17;;
7027;SDS011;3555;53.248;10.336;2023-02-01T08:28:58;15.30;;;3.43;;
7027;SDS011;3555;53.248;10.336;2023-02-01T08:31:27;13.97;;;2.73;;
7027;SDS011;3555;53.248;10.336;2023-02-01T08:33:55;11.40;;;2.83;;
7027;SDS011;3555;53.248;10.336;2023-02-01T08:36:24;12.13;;;2.53;;
7027;SDS011;3555;53.248;10.336;2023-02-01T08:38:53;13.17;;;2.73;;
7027;SDS011;3555;53.248;10.336;2023-02-01T08:41:20;9.00;;;2.63;;
7027;SDS011;3555;53.248;10.336;2023-02-01T08:43:49;16.03;;;3.70;;
7027;SDS011;3555;53.248;10.336;2023-02-01T08:46:16;10.83;;;3.03;;
7027;SDS011;3555;53.248;10.336;2023-02-01T08:48:44;14.03;;;3.53;;
7027;SDS011;3555;53.248;10.336;2023-02-01T08:51:12;15.87;;;3.50;;
7027;SDS011;3555;53.248;10.336;2023-02-01T08:53:42;18.87;;;3.57;;
7027;SDS011;3555;53.248;10.336;2023-02-01T08:56:09;20.33;;;3.50;;
7027;SDS011;3555;53.248;10.336;2023-02-01T08:58:37;18.20;;;3.53;;
7027;SDS011;3555;53.248;10.336;2023-02-01T09:01:05;17.27;;;3.47;;
7027;SDS011;3555;53.248;10.336;2023-02-01T09:03:33;14.27;;;3.73;;
7027;SDS011;3555;53.248;10.336;2023-02-01T09:06:00;15.07;;;3.70;;
7027;SDS011;3555;53.248;10.336;2023-02-01T09:08:28;15.57;;;3.10;;
7027;SDS011;3555;53.248;10.336;2023-02-01T09:10:59;16.87;;;3.37;;
7027;SDS011;3555;53.248;10.336;2023-02-01T09:13:26;13.50;;;3.40;;
7027;SDS011;3555;53.248;10.336;2023-02-01T09:15:53;13.67;;;2.87;;
7027;SDS011;3555;53.248;10.336;2023-02-01T09:18:20;13.67;;;3.57;;
7027;SDS011;3555;53.248;10.336;2023-02-01T09:20:47;13.83;;;3.40;;
7027;SDS011;3555;53.248;10.336;2023-02-01T09:23:14;17.17;;;5.73;;
7027;SDS011;3555;53.248;10.336;2023-02-01T09:25:41;15.33;;;3.43;;
7027;SDS011;3555;53.248;10.336;2023-02-01T09:28:09;14.63;;;3.67;;
7027;SDS011;3555;53.248;10.336;2023-02-01T09:30:36;14.43;;;3.30;;
7027;SDS011;3555;53.248;10.336;2023-02-01T09:33:03;17.57;;;3.00;;
7027;SDS011;3555;53.248;10.336;2023-02-01T09:35:30;16.40;;;3.33;;
7027;SDS011;3555;53.248;10.336;2023-02-01T09:37:57;16.60;;;4.00;;
7027;SDS011;3555;53.248;10.336;2023-02-01T09:40:24;16.00;;;3.23;;
7027;SDS011;3555;53.248;10.336;2023-02-01T09:43:00;14.87;;;3.53;;
7027;SDS011;3555;53.248;10.336;2023-02-01T09:45:44;14.40;;;3.43;;
7027;SDS011;3555;53.248;10.336;2023-02-01T09:48:19;7.83;;;2.87;;
7027;SDS011;3555;53.248;10.336;2023-02-01T09:50:50;14.43;;;3.13;;
7027;SDS011;3555;53.248;10.336;2023-02-01T09:53:21;14.33;;;2.93;;
7027;SDS011;3555;53.248;10.336;2023-02-01T09:55:54;10.90;;;2.90;;
7027;SDS011;3555;53.248;10.336;2023-02-01T09:58:27;13.63;;;3.37;;
7027;SDS011;3555;53.248;10.336;2023-02-01T10:01:00;17.03;;;3.43;;
7027;SDS011;3555;53.248;10.336;2023-02-01T10:03:29;12.43;;;3.07;;
7027;SDS011;3555;53.248;10.336;2023-02-01T10:06:03;16.40;;;3.97;;
7027;SDS011;3555;53.248;10.336;2023-02-01T10:08:50;11.97;;;3.50;;
7027;SDS011;3555;53.248;10.336;2023-02-01T10:11:31;17.33;;;3.57;;
7027;SDS011;3555;53.248;10.336;2023-02-01T10:14:17;18.33;;;3.57;;
7027;SDS011;3555;53.248;10.336;2023-02-01T10:16:56;10.50;;;3.10;;
7027;SDS011;3555;53.248;10.336;2023-02-01T10:19:35;15.87;;;3.00;;
7027;SDS011;3555;53.248;10.336;2023-02-01T10:22:11;15.63;;;3.20;;
7027;SDS011;3555;53.248;10.336;2023-02-01T10:24:46;15.00;;;3.30;;
7027;SDS011;3555;53.248;10.336;2023-02-01T10:27:22;16.20;;;3.27;;
7027;SDS011;3555;53.248;10.336;2023-02-01T10:29:57;13.07;;;2.97;;
7027;SDS011;3555;53.248;10.336;2023-02-01T10:32:28;9.70;;;2.63;;
7027;SDS011;3555;53.248;10.336;2023-02-01T10:34:58;13.83;;;4.27;;
7027;SDS011;3555;53.248;10.336;2023-02-01T10:37:27;21.27;;;3.60;;
7027;SDS011;3555;53.248;10.336;2023-02-01T10:39:56;17.60;;;3.30;;
7027;SDS011;3555;53.248;10.336;2023-02-01T10:42:26;14.40;;;3.63;;
7027;SDS011;3555;53.248;10.336;2023-02-01T10:44:56;16.43;;;3.63;;
7027;SDS011;3555;53.248;10.336;2023-02-01T10:47:25;18.23;;;3.77;;
7027;SDS011;3555;53.248;10.336;2023-02-01T10:49:54;13.40;;;2.97;;
7027;SDS011;3555;53.248;10.336;2023-02-01T10:52:31;15.23;;;3.40;;
7027;SDS011;3555;53.248;10.336;2023-02-01T10:58:02;15.00;;;3.57;;
7027;SDS011;3555;53.248;10.336;2023-02-01T11:00:36;15.67;;;3.23;;
7027;SDS011;3555;53.248;10.336;2023-02-01T11:03:22;13.27;;;3.47;;
7027;SDS011;3555;53.248;10.336;2023-02-01T11:05:59;13.50;;;3.53;;
7027;SDS011;3555;53.248;10.336;2023-02-01T11:08:27;9.70;;;3.10;;
7027;SDS011;3555;53.248;10.336;2023-02-01T11:10:58;15.17;;;3.27;;
7027;SDS011;3555;53.248;10.336;2023-02-01T11:13:29;17.80;;;3.57;;
7027;SDS011;3555;53.248;10.336;2023-02-01T11:16:02;13.83;;;2.73;;
7027;SDS011;3555;53.248;10.336;2023-02-01T11:18:31;19.73;;;3.60;;
7027;SDS011;3555;53.248;10.336;2023-02-01T11:21:01;17.43;;;3.10;;
7027;SDS011;3555;53.248;10.336;2023-02-01T11:23:29;15.77;;;4.03;;
7027;SDS011;3555;53.248;10.336;2023-02-01T11:25:59;14.27;;;3.83;;
7027;SDS011;3555;53.248;10.336;2023-02-01T11:28:28;14.33;;;3.47;;
7027;SDS011;3555;53.248;10.336;2023-02-01T11:30:58;14.17;;;3.17;;
7027;SDS011;3555;53.248;10.336;2023-02-01T11:33:29;11.27;;;3.30;;
7027;SDS011;3555;53.248;10.336;2023-02-01T11:36:00;17.17;;;3.97;;
7027;SDS011;3555;53.248;10.336;2023-02-01T11:38:33;13.17;;;3.60;;
7027;SDS011;3555;53.248;10.336;2023-02-01T11:41:10;19.17;;;3.53;;
7027;SDS011;3555;53.248;10.336;2023-02-01T11:43:50;15.63;;;2.60;;
7027;SDS011;3555;53.248;10.336;2023-02-01T11:46:19;12.87;;;3.30;;
7027;SDS011;3555;53.248;10.336;2023-02-01T11:48:53;18.67;;;3.57;;
7027;SDS011;3555;53.248;10.336;2023-02-01T11:51:25;11.60;;;3.10;;
7027;SDS011;3555;53.248;10.336;2023-02-01T11:54:23;14.93;;;3.13;;
7027;SDS011;3555;53.248;10.336;2023-02-01T11:57:04;11.20;;;3.70;;
7027;SDS011;3555;53.248;10.336;2023-02-01T11:59:47;16.17;;;3.63;;
7027;SDS011;3555;53.248;10.336;2023-02-01T12:02:43;10.97;;;3.33;;
7027;SDS011;3555;53.248;10.336;2023-02-01T12:05:33;16.83;;;3.60;;
7027;SDS011;3555;53.248;10.336;2023-02-01T12:11:16;15.07;;;2.83;;
7027;SDS011;3555;53.248;10.336;2023-02-01T12:13:54;11.13;;;3.10;;
7027;SDS011;3555;53.248;10.336;2023-02-01T12:16:28;11.40;;;3.30;;
7027;SDS011;3555;53.248;10.336;2023-02-01T12:19:11;9.27;;;2.40;;
7027;SDS011;3555;53.248;10.336;2023-02-01T12:25:03;6.27;;;1.40;;
7027;SDS011;3555;53.248;10.336;2023-02-01T12:27:59;2.23;;;1.37;;
7027;SDS011;3555;53.248;10.336;2023-02-01T12:30:39;4.63;;;1.80;;
7027;SDS011;3555;53.248;10.336;2023-02-01T12:33:17;6.03;;;1.50;;
7027;SDS011;3555;53.248;10.336;2023-02-01T12:35:53;4.13;;;1.53;;
7027;SDS011;3555;53.248;10.336;2023-02-01T12:38:35;4.17;;;1.17;;
7027;SDS011;3555;53.248;10.336;2023-02-01T12:41:13;1.80;;;1.10;;
7027;SDS011;3555;53.248;10.336;2023-02-01T12:44:00;5.20;;;1.20;;
7027;SDS011;3555;53.248;10.336;2023-02-01T12:46:32;2.40;;;1.17;;
7027;SDS011;3555;53.248;10.336;2023-02-01T12:49:04;2.10;;;1.07;;
7027;SDS011;3555;53.248;10.336;2023-02-01T12:51:35;2.23;;;1.00;;
7027;SDS011;3555;53.248;10.336;2023-02-01T12:54:08;4.43;;;1.10;;
7027;SDS011;3555;53.248;10.336;2023-02-01T12:56:40;1.83;;;1.20;;
7027;SDS011;3555;53.248;10.336;2023-02-01T12:59:13;2.23;;;0.80;;
7027;SDS011;3555;53.248;10.336;2023-02-01T13:01:46;1.27;;;0.80;;
7027;SDS011;3555;53.248;10.336;2023-02-01T13:04:24;4.60;;;1.60;;
7027;SDS011;3555;53.248;10.336;2023-02-01T13:06:54;1.30;;;0.80;;
7027;SDS011;3555;53.248;10.336;2023-02-01T13:09:30;1.30;;;0.90;;
7027;SDS011;3555;53.248;10.336;2023-02-01T13:12:05;1.73;;;1.20;;
7027;SDS011;3555;53.248;10.336;2023-02-01T13:14:39;1.60;;;0.93;;
7027;SDS011;3555;53.248;10.336;2023-02-01T13:17:12;1.10;;;1.00;;
7027;SDS011;3555;53.248;10.336;2023-02-01T13:19:42;1.20;;;0.90;;
7027;SDS011;3555;53.248;10.336;2023-02-01T13:22:16;1.07;;;0.80;;
7027;SDS011;3555;53.248;10.336;2023-02-01T13:24:49;1.20;;;0.90;;
7027;SDS011;3555;53.248;10.336;2023-02-01T13:27:18;1.20;;;1.10;;
7027;SDS011;3555;53.248;10.336;2023-02-01T13:29:48;1.10;;;0.83;;
7027;SDS011;3555;53.248;10.336;2023-02-01T13:32:25;1.07;;;0.90;;
7027;SDS011;3555;53.248;10.336;2023-02-01T13:35:28;2.30;;;1.10;;
7027;SDS011;3555;53.248;10.336;2023-02-01T13:38:15;1.50;;;1.20;;
7027;SDS011;3555;53.248;10.336;2023-02-01T13:41:10;1.17;;;1.07;;
7027;SDS011;3555;53.248;10.336;2023-02-01T13:43:52;2.83;;;0.80;;
7027;SDS011;3555;53.248;10.336;2023-02-01T13:46:21;1.33;;;0.90;;
7027;SDS011;3555;53.248;10.336;2023-02-01T13:48:49;1.20;;;0.93;;
7027;SDS011;3555;53.248;10.336;2023-02-01T13:51:30;1.00;;;0.90;;
7027;SDS011;3555;53.248;10.336;2023-02-01T13:54:00;1.20;;;1.10;;
7027;SDS011;3555;53.248;10.336;2023-02-01T13:56:29;1.27;;;1.10;;
7027;SDS011;3555;53.248;10.336;2023-02-01T14:08:25;1.00;;;0.80;;
7027;SDS011;3555;53.248;10.336;2023-02-01T14:11:04;0.77;;;0.70;;
7027;SDS011;3555;53.248;10.336;2023-02-01T14:13:33;1.47;;;0.80;;
7027;SDS011;3555;53.248;10.336;2023-02-01T14:16:11;1.40;;;0.90;;
7027;SDS011;3555;53.248;10.336;2023-02-01T14:18:54;1.37;;;0.80;;
7027;SDS011;3555;53.248;10.336;2023-02-01T14:21:25;0.87;;;0.70;;
7027;SDS011;3555;53.248;10.336;2023-02-01T14:23:56;0.97;;;0.80;;
7027;SDS011;3555;53.248;10.336;2023-02-01T14:26:25;1.87;;;1.00;;
7027;SDS011;3555;53.248;10.336;2023-02-01T14:29:17;3.17;;;1.10;;
7027;SDS011;3555;53.248;10.336;2023-02-01T14:31:52;1.63;;;1.23;;
7027;SDS011;3555;53.248;10.336;2023-02-01T14:34:30;2.17;;;0.90;;
7027;SDS011;3555;53.248;10.336;2023-02-01T14:37:03;3.73;;;1.00;;
7027;SDS011;3555;53.248;10.336;2023-02-01T14:39:34;7.40;;;1.13;;
7027;SDS011;3555;53.248;10.336;2023-02-01T14:42:13;4.90;;;1.30;;
7027;SDS011;3555;53.248;10.336;2023-02-01T14:44:48;1.93;;;1.00;;
7027;SDS011;3555;53.248;10.336;2023-02-01T14:50:00;2.27;;;1.27;;
7027;SDS011;3555;53.248;10.336;2023-02-01T14:53:01;6.17;;;1.57;;
7027;SDS011;3555;53.248;10.336;2023-02-01T14:55:35;5.67;;;1.33;;
7027;SDS011;3555;53.248;10.336;2023-02-01T14:58:06;4.93;;;1.30;;
7027;SDS011;3555;53.248;10.336;2023-02-01T15:00:48;5.67;;;1.67;;
7027;SDS011;3555;53.248;10.336;2023-02-01T15:09:08;4.97;;;1.27;;
7027;SDS011;3555;53.248;10.336;2023-02-01T15:14:22;4.87;;;2.77;;
7027;SDS011;3555;53.248;10.336;2023-02-01T15:16:51;3.33;;;1.10;;
7027;SDS011;3555;53.248;10.336;2023-02-01T15:19:20;4.40;;;1.23;;
7027;SDS011;3555;53.248;10.336;2023-02-01T15:21:48;3.03;;;1.60;;
7027;SDS011;3555;53.248;10.336;2023-02-01T15:24:20;4.37;;;1.30;;
7027;SDS011;3555;53.248;10.336;2023-02-01T15:26:48;2.90;;;1.27;;
7027;SDS011;3555;53.248;10.336;2023-02-01T15:29:15;3.20;;;1.17;;
7027;SDS011;3555;53.248;10.336;2023-02-01T15:31:44;7.47;;;1.87;;
7027;SDS011;3555;53.248;10.336;2023-02-01T15:34:14;4.10;;;1.30;;
7027;SDS011;3555;53.248;10.336;2023-02-01T15:36:41;6.20;;;1.50;;
7027;SDS011;3555;53.248;10.336;2023-02-01T15:39:16;4.23;;;1.50;;
7027;SDS011;3555;53.248;10.336;2023-02-01T15:41:46;5.10;;;1.20;;
7027;SDS011;3555;53.248;10.336;2023-02-01T15:44:17;2.47;;;1.50;;
7027;SDS011;3555;53.248;10.336;2023-02-01T15:46:47;7.33;;;1.93;;
7027;SDS011;3555;53.248;10.336;2023-02-01T15:49:19;3.80;;;1.60;;
7027;SDS011;3555;53.248;10.336;2023-02-01T15:51:52;3.87;;;1.70;;
7027;SDS011;3555;53.248;10.336;2023-02-01T15:54:24;4.40;;;1.57;;
7027;SDS011;3555;53.248;10.336;2023-02-01T15:56:56;11.50;;;2.37;;
7027;SDS011;3555;53.248;10.336;2023-02-01T15:59:31;10.17;;;1.97;;
7027;SDS011;3555;53.248;10.336;2023-02-01T16:02:02;6.70;;;1.60;;